TISTTNCM

Guest
Details From TIST - St Thomas - Cyril E King
To TNCM - St Maarten - Princess Juliana Intl
Flight Number -
Tags decoded
Created
Modified
Stats Distance 108 nm / 200 km
Max Altitude 0 ft / 0 m
Waypoints 4
Social Downloads 3
Likes 0
Share VATSIM

Download

Looking for another format? Having issues loading an existing format? Contact us
Advertisement - Login to hide

Notes

Requested: TIST JUICE B520 PJM07 TNCM Unmatched points: B520

Route

TIST JUICE PJM07 TNCM

ID Type Via Altitude Latitude Longitude Leg Dist Tot Dist Heading (true) Name
O TIST APT - 0 ft / 0 m 18.33730˚ -64.97334˚ - 0 nm - St Thomas - Cyril E King
JUICE FIX - 0 ft / 0 m 18.13094˚ -63.66667˚ 75 nm 75 nm 99° / 100° -
PJM07 FIX - 0 ft / 0 m 18.02582˚ -63.24012˚ 25 nm 100 nm 104° / 105° -
O TNCM APT - 0 ft / 0 m 18.04089˚ -63.10897˚ 7 nm 108 nm 83° / 83° St Maarten - Princess Juliana Intl

Altitude Profile

Advertisement - Login to hide

TIST

Details ICAO TIST (STT)
Name St Thomas - Cyril E King
Region USA (U.S. Virgin Islands)
Timezone Unknown (UTC+0.0)
Stats Elevation 23 ft / 7 m (AMSL)
Location 18.337300° -64.973344°
Runways 1
Magnetic Variation 13.653° W

METAR

TIST 222053Z AUTO 08015G20KT 10SM SCT032 28/22 A3000

Decode

TAF

TAF TIST 221744Z 2218/2318 10016KT P6SM VCSH SCT025 SCT035 FM222300 09012KT P6SM FEW025 FM231300 13012KT P6SM SCT025

Decode

Departure Runways

ID Width Length Bearing (true) Bearing (mag) Surface Threshold Offset Overrun Length
10 151 ft / 46 m 6,992 ft / 2,131 m 87.44° 101.09° Asphalt 0 ft / 0 m 200 ft / 61 m
28 151 ft / 46 m 6,992 ft / 2,131 m 267.44° 281.09° Asphalt 2,300 ft / 701 m 200 ft / 61 m

TNCM

Details ICAO TNCM (SXM)
Name St Maarten - Princess Juliana Intl
Region Caribbean Netherlands, Aruba, Curaçao, Sint Maarten
Timezone Unknown (UTC+0.0)
Stats Elevation 12 ft / 4 m (AMSL)
Location 18.040889° -63.108974°
Runways 1
Magnetic Variation 14.337° W

METAR

TNCM 222100Z 09011KT 050V130 9999 SCT020 28/21 Q1016 NOSIG RMK A3003

Decode

TAF

TAF TNCM 221744Z 2218/2318 08015KT P6SM VCSH SCT020

Decode

Destination Runways

ID Width Length Bearing (true) Bearing (mag) Surface Threshold Offset Overrun Length
10 148 ft / 45 m 7,464 ft / 2,275 m 81.43° 95.77° Asphalt 0 ft / 0 m 151 ft / 46 m
28 148 ft / 45 m 7,464 ft / 2,275 m 261.44° 275.78° Asphalt 397 ft / 121 m 0 ft / 0 m

Popular Alternatives